Time;durP1;ratioP1;P1;durP2;ratioP2;P2;SDS_P1;SDS_P2;PMS_P1;PMS_P2;Temp;Humidity;BMP_temperature;BMP_pressure;BME280_temperature;BME280_humidity;BME280_pressure;Samples;Min_cycle;Max_cycle;Signal;HPM_P1;HPM_P2
2021/04/02 00:02:12;;;;;;;10.55;7.72;;;5.40;99.90;;;;;;4343607;32;20093;-62
2021/04/02 00:04:38;;;;;;;9.80;7.93;;;5.30;99.90;;;;;;4326778;32;20081;-63
2021/04/02 00:07:06;;;;;;;9.43;7.75;;;5.40;99.90;;;;;;4362657;32;20081;-62
2021/04/02 00:09:33;;;;;;;9.55;7.80;;;5.40;99.90;;;;;;4338879;32;20090;-61
2021/04/02 00:12:00;;;;;;;9.85;7.37;;;5.30;99.90;;;;;;4326644;32;20163;-61
2021/04/02 00:14:26;;;;;;;9.05;7.70;;;5.30;99.90;;;;;;4337825;32;20084;-61
2021/04/02 00:16:53;;;;;;;9.52;8.52;;;5.20;99.90;;;;;;4351023;32;20082;-60
2021/04/02 00:19:19;;;;;;;8.52;7.30;;;5.30;99.90;;;;;;4350775;32;20513;-61
2021/04/02 00:21:45;;;;;;;9.27;7.75;;;5.20;99.90;;;;;;4335810;32;20076;-62
2021/04/02 00:24:11;;;;;;;9.93;7.87;;;5.30;99.90;;;;;;4341049;32;20086;-61
2021/04/02 00:26:38;;;;;;;9.82;7.37;;;5.20;99.90;;;;;;4346045;32;20066;-61
2021/04/02 00:29:04;;;;;;;10.07;7.12;;;5.30;99.90;;;;;;4323767;32;20090;-65
2021/04/02 00:31:30;;;;;;;9.02;7.07;;;5.30;99.90;;;;;;4323825;32;20512;-61
2021/04/02 00:33:56;;;;;;;9.85;7.50;;;5.30;99.90;;;;;;4326815;32;20169;-59
2021/04/02 00:36:23;;;;;;;7.78;6.93;;;5.20;99.90;;;;;;4354081;32;20162;-62
2021/04/02 00:38:49;;;;;;;8.63;7.62;;;5.20;99.90;;;;;;4363406;32;20105;-61
2021/04/02 00:41:16;;;;;;;8.38;7.00;;;5.20;99.90;;;;;;4362913;32;20092;-61
2021/04/02 00:43:50;;;;;;;8.32;7.50;;;5.20;99.90;;;;;;4362969;32;20091;-60
2021/04/02 00:46:19;;;;;;;8.65;7.70;;;5.20;99.90;;;;;;4351829;32;20493;-61
2021/04/02 00:48:46;;;;;;;9.65;8.32;;;5.20;99.90;;;;;;4340143;32;20463;-63
2021/04/02 00:51:25;;;;;;;8.48;7.30;;;5.20;99.90;;;;;;4337562;32;20094;-62
2021/04/02 00:53:51;;;;;;;10.40;7.07;;;5.30;99.90;;;;;;4340609;32;20074;-61
2021/04/02 00:56:18;;;;;;;7.87;6.68;;;5.30;99.90;;;;;;4325603;32;20078;-61
2021/04/02 00:58:44;;;;;;;9.45;8.27;;;5.30;99.90;;;;;;4326453;32;20085;-61
2021/04/02 01:01:12;;;;;;;9.35;7.43;;;5.30;99.90;;;;;;4338462;32;20651;-62
2021/04/02 01:03:38;;;;;;;9.57;8.15;;;5.30;99.90;;;;;;4338075;32;20243;-60
2021/04/02 01:06:12;;;;;;;10.20;6.72;;;5.40;99.90;;;;;;4326465;32;20070;-61
2021/04/02 01:08:38;;;;;;;9.82;7.85;;;5.40;99.90;;;;;;4326167;32;20175;-61
2021/04/02 01:11:17;;;;;;;9.25;7.70;;;5.40;99.90;;;;;;4337722;32;20159;-61
2021/04/02 01:13:46;;;;;;;10.10;7.70;;;5.40;99.90;;;;;;4339169;32;20081;-62
2021/04/02 01:16:21;;;;;;;8.30;7.40;;;5.40;99.90;;;;;;4325667;32;20504;-61
2021/04/02 01:19:06;;;;;;;9.15;7.18;;;5.30;99.90;;;;;;4325889;32;20505;-61
2021/04/02 01:22:04;;;;;;;9.65;7.35;;;5.30;99.90;;;;;;4337101;32;20072;-61
2021/04/02 01:25:04;;;;;;;9.95;7.05;;;5.30;99.90;;;;;;4364231;32;20513;-62
2021/04/02 01:27:39;;;;;;;9.73;7.60;;;5.30;99.90;;;;;;4354374;32;20496;-61
2021/04/02 01:30:08;;;;;;;9.90;6.45;;;5.40;99.90;;;;;;4362586;32;20513;-61
2021/04/02 01:32:43;;;;;;;8.68;6.72;;;5.30;99.90;;;;;;4337853;32;20073;-62
2021/04/02 01:35:42;;;;;;;9.85;7.68;;;5.40;99.90;;;;;;4350062;32;20074;-60
2021/04/02 01:38:39;;;;;;;8.88;6.87;;;5.30;99.90;;;;;;4339433;32;20453;-61
2021/04/02 01:41:08;;;;;;;7.78;6.95;;;5.30;99.90;;;;;;4357789;32;20081;-61
2021/04/02 01:43:38;;;;;;;9.45;6.75;;;5.30;99.90;;;;;;4337797;32;20067;-61
2021/04/02 01:46:06;;;;;;;10.18;7.20;;;5.30;99.90;;;;;;4326073;32;20070;-60
2021/04/02 01:48:34;;;;;;;9.80;7.20;;;5.20;99.90;;;;;;4325823;32;20074;-61
2021/04/02 01:51:00;;;;;;;8.90;7.22;;;5.20;99.90;;;;;;4337926;32;20102;-60
2021/04/02 01:53:29;;;;;;;8.75;7.37;;;5.20;99.90;;;;;;4346464;32;20077;-62
2021/04/02 01:55:56;;;;;;;8.88;7.07;;;5.20;99.90;;;;;;4326232;32;20085;-61
2021/04/02 01:58:23;;;;;;;10.23;6.50;;;5.20;99.90;;;;;;4340811;32;20162;-61
2021/04/02 02:00:54;;;;;;;9.13;7.03;;;5.30;99.90;;;;;;4333897;32;20078;-61
2021/04/02 02:03:20;;;;;;;8.40;7.00;;;5.20;99.90;;;;;;4337884;32;20093;-61
2021/04/02 02:05:47;;;;;;;10.50;7.12;;;5.30;99.90;;;;;;4348217;32;20202;-61
2021/04/02 02:08:14;;;;;;;9.35;7.55;;;5.30;99.90;;;;;;4339861;32;20070;-60
2021/04/02 02:10:41;;;;;;;10.88;6.95;;;5.30;99.90;;;;;;4321212;32;20152;-61
2021/04/02 02:13:07;;;;;;;9.40;7.62;;;5.30;99.90;;;;;;4337237;32;20078;-60
2021/04/02 02:15:36;;;;;;;11.30;7.53;;;5.40;99.90;;;;;;4353046;32;20069;-61
2021/04/02 02:18:06;;;;;;;9.38;6.75;;;5.30;99.90;;;;;;4340865;32;20096;-61
2021/04/02 02:20:32;;;;;;;8.70;7.35;;;5.30;99.90;;;;;;4352750;32;20072;-62
2021/04/02 02:22:59;;;;;;;9.27;6.68;;;5.30;99.90;;;;;;4339594;32;20541;-62
2021/04/02 02:25:26;;;;;;;9.73;6.70;;;5.30;99.90;;;;;;4340559;32;20092;-62
2021/04/02 02:27:53;;;;;;;9.40;7.12;;;5.20;99.90;;;;;;4340889;32;20089;-62
2021/04/02 02:30:22;;;;;;;9.98;7.60;;;5.30;99.90;;;;;;4338115;32;20070;-61
2021/04/02 02:32:48;;;;;;;8.57;6.72;;;5.30;99.90;;;;;;4346247;32;20230;-60
2021/04/02 02:35:14;;;;;;;10.70;7.57;;;5.20;99.90;;;;;;4338541;32;20066;-60
2021/04/02 02:37:42;;;;;;;10.07;8.18;;;5.30;99.90;;;;;;4346680;32;20085;-60
2021/04/02 02:40:16;;;;;;;8.75;7.40;;;5.20;99.90;;;;;;4360945;32;20085;-62
2021/04/02 02:42:42;;;;;;;8.93;6.78;;;5.20;99.90;;;;;;4340823;32;20147;-61
2021/04/02 02:45:11;;;;;;;9.02;6.30;;;5.20;99.90;;;;;;4338092;32;20085;-62
2021/04/02 02:47:39;;;;;;;10.60;7.28;;;5.20;99.90;;;;;;4336908;32;20074;-60
2021/04/02 02:50:09;;;;;;;8.82;6.55;;;5.10;99.90;;;;;;4309352;32;20086;-61
2021/04/02 02:52:35;;;;;;;10.05;7.03;;;5.10;99.90;;;;;;4348931;32;20082;-61
2021/04/02 02:55:03;;;;;;;11.05;6.95;;;5.10;99.90;;;;;;4330399;32;20201;-61
2021/04/02 02:57:29;;;;;;;9.10;7.50;;;5.00;99.90;;;;;;4337654;32;20493;-62
2021/04/02 02:59:59;;;;;;;8.68;6.18;;;5.10;99.90;;;;;;4318959;32;20063;-60
2021/04/02 03:02:27;;;;;;;10.88;7.12;;;5.10;99.90;;;;;;4334104;32;20512;-61
2021/04/02 03:04:53;;;;;;;10.18;7.07;;;5.10;99.90;;;;;;4324118;32;20073;-60
2021/04/02 03:07:20;;;;;;;9.57;7.25;;;5.20;99.90;;;;;;4336626;32;20084;-61
2021/04/02 03:09:46;;;;;;;9.80;6.80;;;5.20;99.90;;;;;;4341927;32;20074;-61
2021/04/02 03:12:12;;;;;;;8.90;6.28;;;5.30;99.90;;;;;;4340345;32;20445;-63
2021/04/02 03:14:38;;;;;;;10.27;8.20;;;5.20;99.90;;;;;;4350991;32;20499;-63
2021/04/02 03:17:05;;;;;;;10.50;7.70;;;5.20;99.90;;;;;;4339772;32;20108;-60
2021/04/02 03:19:31;;;;;;;9.07;7.32;;;5.20;99.90;;;;;;4352277;32;20113;-60
2021/04/02 03:21:58;;;;;;;10.38;7.57;;;5.20;99.90;;;;;;4360784;32;20089;-61
2021/04/02 03:24:25;;;;;;;10.70;6.72;;;5.20;99.90;;;;;;4341049;32;20200;-61
2021/04/02 03:26:53;;;;;;;9.52;7.07;;;5.10;99.90;;;;;;4339574;32;20520;-61
2021/04/02 03:29:22;;;;;;;9.27;6.65;;;5.00;99.90;;;;;;4339623;32;20067;-63
2021/04/02 03:31:49;;;;;;;9.02;6.85;;;5.10;99.90;;;;;;4340030;32;20151;-61
2021/04/02 03:34:16;;;;;;;11.07;7.30;;;5.00;99.90;;;;;;4339613;32;20420;-61
2021/04/02 03:36:44;;;;;;;8.88;6.95;;;5.00;99.90;;;;;;4336268;32;20174;-60
2021/04/02 03:39:14;;;;;;;8.63;6.85;;;5.00;99.90;;;;;;4337536;32;20437;-61
2021/04/02 03:41:41;;;;;;;9.38;6.50;;;5.10;99.90;;;;;;4339958;32;20070;-60
2021/04/02 03:44:11;;;;;;;9.43;7.12;;;5.10;99.90;;;;;;4351672;32;20104;-61
2021/04/02 03:46:37;;;;;;;8.85;6.65;;;5.20;99.90;;;;;;4319907;32;20158;-61
2021/04/02 03:49:05;;;;;;;8.93;6.05;;;5.20;99.90;;;;;;4328234;32;20085;-61
2021/04/02 03:51:31;;;;;;;9.60;6.50;;;5.30;99.90;;;;;;4327696;32;20098;-62
2021/04/02 03:54:02;;;;;;;10.13;6.90;;;5.30;99.90;;;;;;4327147;32;20448;-61
2021/04/02 03:56:30;;;;;;;9.20;6.75;;;5.30;99.90;;;;;;4339900;32;20081;-60
2021/04/02 03:58:57;;;;;;;9.45;6.37;;;5.40;99.90;;;;;;4339630;32;20081;-60
2021/04/02 04:01:32;;;;;;;9.38;6.22;;;5.30;99.90;;;;;;4351541;32;20156;-62
2021/04/02 04:03:59;;;;;;;11.00;7.53;;;5.30;99.90;;;;;;4339977;32;20065;-61
2021/04/02 04:06:26;;;;;;;9.15;6.95;;;5.20;99.90;;;;;;4325340;32;20067;-61
2021/04/02 04:08:58;;;;;;;11.93;7.07;;;5.20;99.90;;;;;;4351519;32;20082;-63
2021/04/02 04:11:26;;;;;;;8.55;6.45;;;5.20;99.90;;;;;;4338896;32;20066;-61
2021/04/02 04:13:53;;;;;;;10.25;7.28;;;5.30;99.90;;;;;;4326947;32;20081;-61
2021/04/02 04:16:22;;;;;;;12.35;7.07;;;5.30;99.90;;;;;;4327026;32;20078;-61
2021/04/02 04:18:52;;;;;;;10.90;7.10;;;5.20;99.90;;;;;;4327007;32;20197;-61
2021/04/02 04:21:19;;;;;;;10.80;7.40;;;5.20;99.90;;;;;;4326584;32;20070;-63
2021/04/02 04:23:45;;;;;;;10.02;7.07;;;5.30;99.90;;;;;;4326422;32;20539;-62
2021/04/02 04:26:11;;;;;;;10.38;6.87;;;5.30;99.90;;;;;;4338592;32;20073;-61
2021/04/02 04:28:39;;;;;;;8.52;6.40;;;5.30;99.90;;;;;;4348746;32;20069;-62
2021/04/02 04:31:07;;;;;;;8.63;6.18;;;5.40;99.90;;;;;;4343900;32;20078;-61
2021/04/02 04:33:33;;;;;;;9.80;7.93;;;5.40;99.90;;;;;;4348491;32;20102;-61
2021/04/02 04:36:00;;;;;;;8.68;7.03;;;5.40;99.90;;;;;;4314768;32;20122;-62
2021/04/02 04:38:26;;;;;;;10.50;7.57;;;5.50;99.90;;;;;;4346757;32;20095;-61
2021/04/02 04:40:53;;;;;;;10.85;6.40;;;5.50;99.90;;;;;;4334871;32;20070;-60
2021/04/02 04:43:19;;;;;;;11.82;7.60;;;5.60;99.90;;;;;;4326106;32;20151;-61
2021/04/02 04:45:46;;;;;;;10.85;6.82;;;5.50;99.90;;;;;;4350646;32;20093;-61
2021/04/02 04:48:12;;;;;;;10.23;6.45;;;5.50;99.90;;;;;;4351224;32;20089;-61
2021/04/02 04:50:39;;;;;;;9.23;6.35;;;5.60;99.90;;;;;;4326031;32;20507;-62
2021/04/02 04:53:27;;;;;;;9.75;7.15;;;5.70;99.90;;;;;;4322892;32;20054;-61
2021/04/02 04:55:54;;;;;;;8.13;6.53;;;5.70;99.90;;;;;;4350735;32;20070;-61
2021/04/02 04:58:22;;;;;;;10.63;6.68;;;5.80;99.90;;;;;;4350571;32;20500;-60
2021/04/02 05:00:50;;;;;;;10.23;6.72;;;5.80;99.90;;;;;;4338191;32;20501;-61
2021/04/02 05:03:19;;;;;;;9.88;6.95;;;6.00;99.90;;;;;;4338611;32;20074;-61
2021/04/02 05:05:46;;;;;;;8.85;5.37;;;6.00;99.90;;;;;;4326379;32;20069;-60
2021/04/02 05:08:19;;;;;;;8.40;7.18;;;6.10;99.90;;;;;;4313465;32;20525;-61
2021/04/02 05:10:45;;;;;;;8.88;6.72;;;6.30;99.70;;;;;;4338191;32;20062;-62
2021/04/02 05:13:12;;;;;;;9.15;6.80;;;6.20;98.10;;;;;;4324832;32;20106;-62
2021/04/02 05:15:39;;;;;;;10.35;7.30;;;6.10;98.70;;;;;;4325955;32;20166;-62
2021/04/02 05:18:05;;;;;;;9.70;6.47;;;6.10;98.10;;;;;;4325852;32;20070;-61
2021/04/02 05:20:39;;;;;;;8.38;7.10;;;6.30;95.90;;;;;;4337914;32;20100;-61
2021/04/02 05:23:06;;;;;;;11.25;7.28;;;6.30;96.10;;;;;;4337844;32;20066;-62
2021/04/02 05:25:32;;;;;;;9.43;7.43;;;6.40;95.00;;;;;;4335184;32;20085;-61
2021/04/02 05:27:58;;;;;;;7.78;6.55;;;6.40;94.90;;;;;;4347454;32;20071;-62
2021/04/02 05:30:26;;;;;;;9.85;6.75;;;6.40;94.80;;;;;;4327478;32;20094;-62
2021/04/02 05:32:53;;;;;;;10.93;6.60;;;6.40;94.50;;;;;;4359065;32;20093;-61
2021/04/02 05:35:19;;;;;;;9.70;6.80;;;6.40;95.00;;;;;;4349849;32;20506;-61
2021/04/02 05:37:45;;;;;;;8.25;6.43;;;6.30;95.00;;;;;;4348938;32;20051;-62
2021/04/02 05:40:12;;;;;;;9.40;7.00;;;6.30;95.70;;;;;;4337435;32;20070;-61
2021/04/02 05:42:42;;;;;;;8.10;6.45;;;6.40;95.40;;;;;;4349995;32;20077;-63
2021/04/02 05:45:09;;;;;;;10.60;6.60;;;6.30;95.90;;;;;;4337967;32;20159;-62
2021/04/02 05:47:35;;;;;;;10.18;6.37;;;6.30;95.60;;;;;;4350269;32;20112;-62
2021/04/02 05:50:02;;;;;;;8.63;6.72;;;6.30;96.20;;;;;;4338085;32;20158;-60
2021/04/02 05:52:29;;;;;;;9.52;6.70;;;6.30;96.20;;;;;;4333153;32;20068;-62
2021/04/02 05:54:57;;;;;;;8.98;6.50;;;6.40;95.50;;;;;;4340406;32;20081;-61
2021/04/02 05:57:24;;;;;;;12.00;6.87;;;6.40;95.60;;;;;;4338673;32;20058;-64
2021/04/02 05:59:50;;;;;;;7.50;5.80;;;6.40;94.90;;;;;;4343375;32;20071;-61
2021/04/02 06:02:17;;;;;;;8.75;6.75;;;6.50;95.30;;;;;;4353471;32;20080;-61
2021/04/02 06:04:44;;;;;;;10.50;6.28;;;6.60;95.30;;;;;;4350370;32;20512;-61
2021/04/02 06:07:10;;;;;;;8.52;6.10;;;6.50;95.00;;;;;;4325267;32;20082;-60
2021/04/02 06:09:36;;;;;;;9.25;5.72;;;6.50;95.10;;;;;;4337531;32;20153;-61
2021/04/02 06:12:03;;;;;;;8.07;5.78;;;6.60;94.70;;;;;;4337405;32;20093;-60
2021/04/02 06:14:29;;;;;;;8.18;5.68;;;6.70;93.60;;;;;;4348373;32;20509;-61
2021/04/02 06:16:55;;;;;;;8.00;6.00;;;6.70;93.40;;;;;;4349952;32;20090;-60
2021/04/02 06:19:22;;;;;;;9.60;5.60;;;6.90;92.90;;;;;;4361827;32;20492;-61
2021/04/02 06:21:51;;;;;;;9.60;5.75;;;6.70;92.90;;;;;;4334872;32;20074;-61
2021/04/02 06:24:38;;;;;;;7.37;5.87;;;7.00;92.10;;;;;;4328159;32;20141;-60
2021/04/02 06:27:06;;;;;;;7.97;4.93;;;7.00;92.10;;;;;;4322977;32;20062;-62
2021/04/02 06:29:43;;;;;;;7.78;6.15;;;7.10;91.60;;;;;;4335550;32;20461;-62
2021/04/02 06:32:15;;;;;;;8.18;5.78;;;7.10;90.80;;;;;;4320136;32;20062;-61
2021/04/02 06:34:49;;;;;;;8.88;5.37;;;7.40;90.00;;;;;;4333565;32;20113;-62
2021/04/02 06:37:18;;;;;;;8.75;5.60;;;7.40;89.00;;;;;;4333153;32;20098;-63
2021/04/02 06:39:52;;;;;;;9.48;5.40;;;7.60;87.10;;;;;;4344741;33;20237;-61
2021/04/02 06:42:31;;;;;;;8.13;4.93;;;7.70;87.40;;;;;;4344374;33;20079;-60
2021/04/02 06:45:06;;;;;;;9.63;5.90;;;7.70;86.80;;;;;;4332439;33;20082;-61
2021/04/02 06:47:36;;;;;;;8.75;5.32;;;7.70;86.30;;;;;;4333059;32;20101;-62
2021/04/02 06:50:26;;;;;;;9.00;4.62;;;8.00;84.00;;;;;;4328665;33;20070;-60
2021/04/02 06:52:55;;;;;;;9.60;5.60;;;8.00;82.60;;;;;;4345977;33;20082;-60
2021/04/02 06:55:22;;;;;;;9.13;5.00;;;8.00;83.30;;;;;;4336368;32;20082;-62
2021/04/02 06:57:53;;;;;;;11.30;5.78;;;8.20;82.20;;;;;;4337341;32;20070;-62
2021/04/02 07:00:25;;;;;;;9.00;5.72;;;8.30;81.00;;;;;;4337659;32;20526;-60
2021/04/02 07:02:53;;;;;;;8.43;5.10;;;7.70;84.20;;;;;;4337865;32;20089;-62
2021/04/02 07:05:26;;;;;;;6.53;4.72;;;7.70;83.80;;;;;;4335831;32;20082;-60
2021/04/02 07:08:07;;;;;;;7.50;5.15;;;8.00;83.20;;;;;;4323937;33;20063;-62
2021/04/02 07:10:39;;;;;;;9.60;5.15;;;8.00;82.20;;;;;;4329128;33;20063;-60
2021/04/02 07:13:07;;;;;;;9.00;5.37;;;8.30;81.50;;;;;;4346766;32;20101;-60
2021/04/02 07:15:35;;;;;;;9.95;4.70;;;8.10;81.40;;;;;;4322027;33;20583;-60
2021/04/02 07:18:05;;;;;;;9.75;5.00;;;8.30;80.70;;;;;;4325952;33;20522;-61
2021/04/02 07:20:32;;;;;;;9.35;4.93;;;8.30;80.40;;;;;;4329237;33;20070;-60
2021/04/02 07:22:59;;;;;;;8.20;4.75;;;8.10;80.00;;;;;;4332663;32;20070;-60
2021/04/02 07:25:25;;;;;;;9.38;4.93;;;8.20;81.40;;;;;;4336708;32;20171;-61
2021/04/02 07:27:51;;;;;;;9.27;4.90;;;8.00;81.30;;;;;;4334253;33;20580;-61
2021/04/02 07:30:20;;;;;;;11.63;5.03;;;8.40;80.80;;;;;;4322526;33;20090;-60
2021/04/02 07:32:46;;;;;;;8.80;4.82;;;8.20;79.40;;;;;;4330933;33;20505;-62
2021/04/02 07:35:23;;;;;;;7.55;4.40;;;8.40;79.60;;;;;;4333138;33;20074;-61
2021/04/02 07:37:56;;;;;;;;;;;8.40;79.40;;;;;;4326748;32;20074;-61
2021/04/02 07:40:33;;;;;;;8.52;4.45;;;8.40;79.20;;;;;;4346836;33;20041;-60
2021/04/02 07:43:08;;;;;;;8.98;5.68;;;8.60;78.10;;;;;;4343816;33;20449;-61
2021/04/02 07:45:36;;;;;;;8.00;4.75;;;8.40;79.20;;;;;;4350779;32;20165;-63
2021/04/02 07:48:34;;;;;;;7.75;4.15;;;8.50;79.00;;;;;;4322517;33;20189;-61
2021/04/02 07:51:04;;;;;;;8.23;4.35;;;8.60;78.00;;;;;;4328421;33;20465;-60
2021/04/02 07:53:33;;;;;;;9.48;4.37;;;8.50;78.60;;;;;;4346061;33;20513;-61
2021/04/02 07:56:19;;;;;;;6.43;3.95;;;8.80;76.80;;;;;;4353897;32;20083;-61
2021/04/02 07:58:53;;;;;;;4.87;3.70;;;8.70;76.20;;;;;;4322492;33;20075;-60
2021/04/02 08:01:23;;;;;;;8.05;3.90;;;8.90;75.60;;;;;;4345634;33;20078;-62
2021/04/02 08:03:51;;;;;;;9.30;4.18;;;8.90;74.90;;;;;;4324108;33;20067;-61
2021/04/02 08:06:39;;;;;;;7.45;4.43;;;8.90;75.60;;;;;;4336804;32;20067;-61
2021/04/02 08:09:08;;;;;;;9.75;3.97;;;9.20;74.40;;;;;;4349568;32;20074;-60
2021/04/02 08:11:37;;;;;;;8.65;3.85;;;9.30;73.30;;;;;;4310282;33;20163;-60
2021/04/02 08:14:09;;;;;;;11.43;4.20;;;9.10;73.70;;;;;;4325899;33;20071;-61
2021/04/02 08:16:46;;;;;;;7.82;4.25;;;9.30;73.10;;;;;;4334062;33;20564;-60
2021/04/02 08:19:17;;;;;;;7.62;3.80;;;9.30;73.10;;;;;;4345667;32;20066;-60
2021/04/02 08:21:49;;;;;;;5.05;3.70;;;9.30;72.70;;;;;;4324585;32;20524;-61
2021/04/02 08:24:20;;;;;;;5.62;4.05;;;9.10;72.80;;;;;;4340267;32;20078;-65
2021/04/02 08:26:47;;;;;;;6.90;4.03;;;9.30;72.00;;;;;;4332861;32;20070;-61
2021/04/02 08:29:14;;;;;;;7.85;4.30;;;8.80;72.20;;;;;;4348714;32;20064;-62
2021/04/02 08:31:53;;;;;;;7.00;3.75;;;9.10;72.10;;;;;;4336388;32;20259;-61
2021/04/02 08:34:22;;;;;;;7.25;3.55;;;9.10;71.90;;;;;;4325152;32;20079;-60
2021/04/02 08:36:50;;;;;;;7.53;3.67;;;9.50;70.70;;;;;;4335362;32;20168;-61
2021/04/02 08:39:18;;;;;;;7.80;3.83;;;10.10;68.90;;;;;;4337842;32;20069;-61
2021/04/02 08:41:45;;;;;;;7.85;3.55;;;9.90;66.60;;;;;;4363155;32;20089;-63
2021/04/02 08:44:11;;;;;;;7.97;3.62;;;9.90;67.70;;;;;;4360408;32;20102;-60
2021/04/02 08:47:00;;;;;;;5.40;3.37;;;9.70;66.60;;;;;;4338814;32;20101;-61
2021/04/02 08:49:27;;;;;;;6.10;3.70;;;9.50;68.00;;;;;;4365662;32;20078;-61
2021/04/02 08:51:53;;;;;;;5.50;4.00;;;9.10;69.00;;;;;;4350554;32;20054;-61
2021/04/02 08:54:20;;;;;;;5.97;3.60;;;8.80;70.00;;;;;;4338116;32;20086;-62
2021/04/02 08:56:50;;;;;;;8.10;4.12;;;8.90;69.80;;;;;;4351410;32;20153;-61
2021/04/02 08:59:17;;;;;;;6.37;3.80;;;8.90;69.30;;;;;;4350758;32;20528;-60
2021/04/02 09:01:45;;;;;;;10.57;4.12;;;9.00;69.40;;;;;;4336883;32;20186;-61
2021/04/02 09:04:12;;;;;;;12.65;4.80;;;9.40;67.90;;;;;;4331035;32;20086;-60
2021/04/02 09:06:39;;;;;;;9.25;4.53;;;9.70;66.60;;;;;;4363470;32;20097;-60
2021/04/02 09:09:20;;;;;;;9.13;4.20;;;9.90;65.90;;;;;;4341998;32;20078;-62
2021/04/02 09:11:49;;;;;;;5.75;4.20;;;10.00;65.10;;;;;;4325462;32;20192;-65
2021/04/02 09:14:15;;;;;;;8.00;3.70;;;9.70;64.10;;;;;;4351627;32;20518;-61
2021/04/02 09:16:45;;;;;;;9.25;4.45;;;9.60;65.80;;;;;;4350348;32;20525;-60
2021/04/02 09:19:12;;;;;;;7.97;3.67;;;10.00;63.30;;;;;;4353918;32;20512;-61
2021/04/02 09:21:38;;;;;;;11.02;4.45;;;9.60;63.90;;;;;;4322712;32;20487;-60
2021/04/02 09:24:04;;;;;;;11.30;4.60;;;9.60;64.50;;;;;;4326035;32;20102;-61
2021/04/02 09:26:36;;;;;;;11.30;4.55;;;9.80;63.20;;;;;;4331028;32;20086;-60
2021/04/02 09:29:03;;;;;;;8.85;4.10;;;9.30;63.70;;;;;;4340658;32;20085;-61
2021/04/02 09:31:32;;;;;;;8.35;3.60;;;9.50;63.60;;;;;;4325818;32;20088;-60
2021/04/02 09:34:02;;;;;;;10.70;3.97;;;9.50;63.30;;;;;;4350553;32;20063;-60
2021/04/02 09:36:33;;;;;;;8.98;3.85;;;9.30;62.40;;;;;;4325424;32;20256;-60
2021/04/02 09:39:13;;;;;;;9.25;4.40;;;9.50;62.20;;;;;;4336182;32;20078;-60
2021/04/02 09:41:52;;;;;;;8.25;4.03;;;9.70;60.80;;;;;;4337959;32;20082;-61
2021/04/02 09:44:21;;;;;;;5.90;3.50;;;9.40;60.70;;;;;;4329681;32;20074;-60
2021/04/02 09:46:49;;;;;;;7.55;3.50;;;9.20;59.90;;;;;;4359249;32;20085;-62
2021/04/02 09:49:23;;;;;;;8.02;3.62;;;9.40;59.70;;;;;;4335812;32;20082;-61
2021/04/02 09:51:52;;;;;;;13.88;4.22;;;9.30;59.10;;;;;;4338683;32;20186;-61
2021/04/02 09:54:19;;;;;;;12.50;3.95;;;9.20;58.40;;;;;;4338161;32;20058;-61
2021/04/02 09:56:46;;;;;;;11.12;3.62;;;8.90;58.40;;;;;;4334764;32;20210;-66
2021/04/02 09:59:14;;;;;;;12.70;4.45;;;9.00;58.10;;;;;;4340412;32;20113;-61
2021/04/02 10:01:42;;;;;;;7.65;3.47;;;9.00;57.90;;;;;;4341696;32;20066;-59
2021/04/02 10:04:09;;;;;;;9.15;3.12;;;9.10;57.40;;;;;;4354670;32;20062;-60
2021/04/02 10:06:35;;;;;;;8.85;3.00;;;9.10;56.70;;;;;;4331654;32;20109;-59
2021/04/02 10:09:04;;;;;;;7.55;2.90;;;9.10;56.40;;;;;;4348876;32;20070;-60
2021/04/02 10:11:30;;;;;;;8.48;2.80;;;9.20;56.20;;;;;;4348834;32;20081;-59
2021/04/02 10:13:57;;;;;;;9.40;3.03;;;9.00;55.70;;;;;;4344368;32;20074;-60
2021/04/02 10:16:23;;;;;;;8.07;3.15;;;9.10;55.70;;;;;;4321950;32;20160;-59
2021/04/02 10:18:50;;;;;;;6.12;2.67;;;9.10;55.10;;;;;;4331770;32;20197;-59
2021/04/02 10:21:23;;;;;;;9.32;3.55;;;9.10;55.00;;;;;;4343678;32;20070;-62
2021/04/02 10:23:50;;;;;;;8.63;3.30;;;9.30;54.60;;;;;;4330681;32;20523;-60
2021/04/02 10:26:17;;;;;;;9.32;2.90;;;9.30;53.90;;;;;;4334926;32;20078;-60
2021/04/02 10:28:43;;;;;;;6.62;3.28;;;9.40;54.20;;;;;;4346379;32;20092;-62
2021/04/02 10:31:10;;;;;;;8.10;3.45;;;9.50;53.90;;;;;;4358355;32;20517;-60
2021/04/02 10:33:36;;;;;;;5.20;3.20;;;9.50;54.10;;;;;;4336651;32;20097;-61
2021/04/02 10:36:03;;;;;;;6.60;3.25;;;9.40;53.80;;;;;;4345264;32;20067;-59
2021/04/02 10:38:29;;;;;;;10.38;3.62;;;9.50;54.20;;;;;;4357883;32;20074;-61
2021/04/02 10:40:55;;;;;;;5.93;3.17;;;9.30;54.50;;;;;;4358180;32;20112;-63
2021/04/02 10:43:22;;;;;;;7.40;3.53;;;9.30;54.60;;;;;;4334551;32;20158;-61
2021/04/02 10:45:49;;;;;;;6.22;3.20;;;9.40;54.30;;;;;;4312705;32;20147;-60
2021/04/02 10:48:15;;;;;;;8.82;4.32;;;9.70;54.00;;;;;;4325982;32;20162;-61
2021/04/02 10:50:42;;;;;;;6.90;3.37;;;10.00;52.70;;;;;;4324351;32;20069;-62
2021/04/02 10:53:09;;;;;;;11.80;3.15;;;9.60;53.20;;;;;;4345618;32;20074;-60
2021/04/02 10:55:35;;;;;;;11.07;3.30;;;9.50;53.70;;;;;;4328445;32;20112;-63
2021/04/02 10:58:05;;;;;;;7.72;3.22;;;9.30;54.30;;;;;;4346063;32;20142;-62
2021/04/02 11:00:31;;;;;;;11.90;3.10;;;9.80;54.10;;;;;;4359071;32;20062;-62
2021/04/02 11:02:58;;;;;;;7.75;2.95;;;9.70;53.10;;;;;;4345832;32;20235;-63
2021/04/02 11:05:24;;;;;;;8.50;3.42;;;9.70;52.50;;;;;;4367436;32;20067;-60
2021/04/02 11:07:50;;;;;;;13.20;4.25;;;9.80;52.60;;;;;;4345957;32;20070;-60
2021/04/02 11:10:19;;;;;;;7.55;3.35;;;9.70;52.40;;;;;;4323593;32;20481;-60
2021/04/02 11:12:45;;;;;;;10.23;3.30;;;10.00;52.30;;;;;;4346765;32;20070;-62
2021/04/02 11:15:15;;;;;;;15.68;3.80;;;10.20;51.80;;;;;;4333583;32;20113;-62
2021/04/02 11:17:42;;;;;;;10.23;3.55;;;9.60;52.40;;;;;;4346851;32;20105;-62
2021/04/02 11:20:16;;;;;;;17.35;3.53;;;9.90;52.10;;;;;;4348067;32;20078;-62
2021/04/02 11:22:43;;;;;;;19.77;7.87;;;9.60;51.90;;;;;;4358234;32;20610;-62
2021/04/02 11:25:11;;;;;;;18.58;3.70;;;9.90;52.00;;;;;;4334026;32;20110;-63
2021/04/02 11:27:37;;;;;;;18.05;3.78;;;10.00;51.50;;;;;;4355160;32;20134;-63
2021/04/02 11:30:08;;;;;;;17.58;5.43;;;9.90;51.30;;;;;;4342190;32;20154;-59
2021/04/02 11:32:35;;;;;;;13.98;3.70;;;9.90;51.80;;;;;;4323420;32;20497;-62
2021/04/02 11:35:01;;;;;;;19.67;4.45;;;9.80;52.00;;;;;;4334508;32;20074;-61
2021/04/02 11:37:30;;;;;;;21.17;4.05;;;9.60;52.20;;;;;;4344295;32;20548;-63
2021/04/02 11:39:56;;;;;;;23.65;4.97;;;9.50;52.30;;;;;;4344849;32;20058;-64
2021/04/02 11:42:22;;;;;;;17.45;4.10;;;9.40;52.20;;;;;;4369086;32;20082;-64
2021/04/02 11:44:49;;;;;;;18.30;3.95;;;9.30;53.00;;;;;;4364492;32;20178;-66
2021/04/02 11:47:15;;;;;;;16.00;3.70;;;9.20;53.40;;;;;;4337677;32;20078;-59
2021/04/02 11:49:41;;;;;;;22.52;4.20;;;9.40;52.80;;;;;;4335767;32;20113;-65
2021/04/02 11:52:08;;;;;;;16.15;4.05;;;9.50;52.70;;;;;;4338093;32;20071;-60
2021/04/02 11:54:34;;;;;;;19.95;4.60;;;9.70;51.80;;;;;;4326929;32;20488;-60
2021/04/02 11:57:00;;;;;;;31.67;4.50;;;10.20;50.30;;;;;;4362478;32;20143;-61
2021/04/02 11:59:27;;;;;;;22.02;3.75;;;9.90;50.70;;;;;;4339386;32;20147;-61
2021/04/02 12:01:53;;;;;;;23.55;4.55;;;10.10;51.80;;;;;;4326652;32;20059;-62
2021/04/02 12:04:19;;;;;;;32.40;5.12;;;10.00;50.00;;;;;;4348308;32;20078;-64
2021/04/02 12:06:46;;;;;;;27.05;4.82;;;9.80;49.90;;;;;;4338228;32;20452;-62
2021/04/02 12:09:12;;;;;;;28.35;4.93;;;9.80;49.90;;;;;;4361787;32;20489;-61
2021/04/02 12:11:39;;;;;;;26.00;5.40;;;10.00;49.90;;;;;;4363694;32;20493;-60
2021/04/02 12:14:08;;;;;;;25.77;4.75;;;10.10;49.30;;;;;;4352257;32;20509;-63
2021/04/02 12:16:35;;;;;;;14.45;3.75;;;9.90;49.00;;;;;;4364231;32;20074;-61
2021/04/02 12:19:04;;;;;;;23.95;4.95;;;10.10;49.20;;;;;;4342051;32;20082;-59
2021/04/02 12:21:30;;;;;;;36.05;5.32;;;10.00;49.10;;;;;;4347372;32;20063;-60
2021/04/02 12:23:58;;;;;;;20.60;4.65;;;10.00;48.30;;;;;;4363035;32;20072;-60
2021/04/02 12:26:25;;;;;;;28.27;5.07;;;10.20;48.70;;;;;;4345080;32;20081;-59
2021/04/02 12:28:51;;;;;;;19.02;4.18;;;9.80;48.70;;;;;;4375838;32;20078;-62
2021/04/02 12:31:19;;;;;;;30.25;6.10;;;10.00;48.30;;;;;;4357483;32;20509;-63
2021/04/02 12:33:45;;;;;;;26.87;5.28;;;9.90;49.20;;;;;;4350895;32;20066;-61
2021/04/02 12:36:11;;;;;;;27.33;4.45;;;10.10;48.60;;;;;;4338563;32;20650;-61
2021/04/02 12:38:38;;;;;;;26.65;4.50;;;9.80;48.70;;;;;;4350405;32;20070;-61
2021/04/02 12:41:04;;;;;;;24.75;4.53;;;10.10;48.20;;;;;;4359188;32;20075;-61
2021/04/02 12:43:31;;;;;;;28.30;5.62;;;10.10;47.80;;;;;;4335738;32;20573;-62
2021/04/02 12:45:58;;;;;;;34.75;5.30;;;10.00;48.30;;;;;;4332961;32;20066;-61
2021/04/02 12:48:26;;;;;;;21.33;3.92;;;9.60;48.30;;;;;;4329592;32;20086;-62
2021/04/02 12:50:56;;;;;;;27.60;4.62;;;9.80;48.70;;;;;;4332451;32;20081;-61
2021/04/02 12:53:23;;;;;;;26.45;4.62;;;9.80;48.30;;;;;;4321756;32;20188;-62
2021/04/02 12:55:51;;;;;;;32.35;5.45;;;9.80;48.10;;;;;;4326081;32;20070;-61
2021/04/02 12:58:18;;;;;;;22.60;4.00;;;9.80;47.70;;;;;;4325822;32;20073;-59
2021/04/02 13:00:45;;;;;;;16.85;4.72;;;9.90;46.70;;;;;;4325825;32;20572;-60
2021/04/02 13:03:11;;;;;;;29.73;4.90;;;9.70;46.50;;;;;;4336724;32;20165;-61